sensor_id;sensor_type;location;lat;lon;timestamp;P1;durP1;ratioP1;P2;durP2;ratioP2
56720;SDS011;53183;47.412;18.884;2024-01-30T00:01:10;39.60;;;11.88;;
56720;SDS011;53183;47.412;18.884;2024-01-30T00:03:38;33.75;;;13.13;;
56720;SDS011;53183;47.412;18.884;2024-01-30T00:06:06;29.08;;;11.85;;
56720;SDS011;53183;47.412;18.884;2024-01-30T00:08:34;26.10;;;11.77;;
56720;SDS011;53183;47.412;18.884;2024-01-30T00:11:01;23.10;;;11.23;;
56720;SDS011;53183;47.412;18.884;2024-01-30T00:13:29;28.48;;;11.32;;
56720;SDS011;53183;47.412;18.884;2024-01-30T00:15:56;27.95;;;11.52;;
56720;SDS011;53183;47.412;18.884;2024-01-30T00:18:23;26.05;;;12.23;;
56720;SDS011;53183;47.412;18.884;2024-01-30T00:20:50;27.77;;;10.65;;
56720;SDS011;53183;47.412;18.884;2024-01-30T00:23:17;25.90;;;12.00;;
56720;SDS011;53183;47.412;18.884;2024-01-30T00:25:44;26.05;;;12.30;;
56720;SDS011;53183;47.412;18.884;2024-01-30T00:28:11;26.87;;;12.27;;
56720;SDS011;53183;47.412;18.884;2024-01-30T00:30:38;28.05;;;13.43;;
56720;SDS011;53183;47.412;18.884;2024-01-30T00:33:05;23.60;;;11.35;;
56720;SDS011;53183;47.412;18.884;2024-01-30T00:35:32;33.25;;;11.93;;
56720;SDS011;53183;47.412;18.884;2024-01-30T00:37:59;24.92;;;11.15;;
56720;SDS011;53183;47.412;18.884;2024-01-30T00:40:27;28.77;;;12.60;;
56720;SDS011;53183;47.412;18.884;2024-01-30T00:42:54;27.10;;;12.05;;
56720;SDS011;53183;47.412;18.884;2024-01-30T00:45:21;38.97;;;14.07;;
56720;SDS011;53183;47.412;18.884;2024-01-30T00:47:48;29.05;;;12.93;;
56720;SDS011;53183;47.412;18.884;2024-01-30T00:50:16;35.58;;;14.43;;
56720;SDS011;53183;47.412;18.884;2024-01-30T00:52:43;31.05;;;14.10;;
56720;SDS011;53183;47.412;18.884;2024-01-30T00:55:12;31.02;;;13.82;;
56720;SDS011;53183;47.412;18.884;2024-01-30T00:57:40;39.38;;;14.80;;
56720;SDS011;53183;47.412;18.884;2024-01-30T01:00:11;48.58;;;16.08;;
56720;SDS011;53183;47.412;18.884;2024-01-30T01:02:39;28.12;;;13.80;;
56720;SDS011;53183;47.412;18.884;2024-01-30T01:05:06;29.58;;;13.38;;
56720;SDS011;53183;47.412;18.884;2024-01-30T01:07:33;31.50;;;12.37;;
56720;SDS011;53183;47.412;18.884;2024-01-30T01:10:01;25.77;;;10.82;;
56720;SDS011;53183;47.412;18.884;2024-01-30T01:12:29;22.70;;;10.48;;
56720;SDS011;53183;47.412;18.884;2024-01-30T01:14:56;26.55;;;11.90;;
56720;SDS011;53183;47.412;18.884;2024-01-30T01:17:25;31.42;;;10.52;;
56720;SDS011;53183;47.412;18.884;2024-01-30T01:19:52;24.05;;;10.80;;
56720;SDS011;53183;47.412;18.884;2024-01-30T01:22:22;23.90;;;10.27;;
56720;SDS011;53183;47.412;18.884;2024-01-30T01:24:49;23.92;;;9.93;;
56720;SDS011;53183;47.412;18.884;2024-01-30T01:27:17;23.55;;;10.18;;
56720;SDS011;53183;47.412;18.884;2024-01-30T01:29:44;23.02;;;9.90;;
56720;SDS011;53183;47.412;18.884;2024-01-30T01:32:12;20.88;;;9.18;;
56720;SDS011;53183;47.412;18.884;2024-01-30T01:34:39;21.20;;;9.27;;
56720;SDS011;53183;47.412;18.884;2024-01-30T01:37:08;21.75;;;10.88;;
56720;SDS011;53183;47.412;18.884;2024-01-30T01:39:36;20.23;;;10.52;;
56720;SDS011;53183;47.412;18.884;2024-01-30T01:42:03;31.67;;;10.10;;
56720;SDS011;53183;47.412;18.884;2024-01-30T01:44:30;21.62;;;10.52;;
56720;SDS011;53183;47.412;18.884;2024-01-30T01:46:58;23.27;;;10.15;;
56720;SDS011;53183;47.412;18.884;2024-01-30T01:49:25;22.05;;;9.05;;
56720;SDS011;53183;47.412;18.884;2024-01-30T01:51:57;21.80;;;9.35;;
56720;SDS011;53183;47.412;18.884;2024-01-30T01:54:25;22.10;;;10.27;;
56720;SDS011;53183;47.412;18.884;2024-01-30T01:56:53;35.15;;;14.70;;
56720;SDS011;53183;47.412;18.884;2024-01-30T01:59:22;24.87;;;12.40;;
56720;SDS011;53183;47.412;18.884;2024-01-30T02:01:51;30.35;;;12.55;;
56720;SDS011;53183;47.412;18.884;2024-01-30T02:04:20;23.10;;;10.95;;
56720;SDS011;53183;47.412;18.884;2024-01-30T02:06:47;22.62;;;10.68;;
56720;SDS011;53183;47.412;18.884;2024-01-30T02:09:15;27.42;;;11.93;;
56720;SDS011;53183;47.412;18.884;2024-01-30T02:11:42;25.62;;;10.88;;
56720;SDS011;53183;47.412;18.884;2024-01-30T02:14:09;24.55;;;10.52;;
56720;SDS011;53183;47.412;18.884;2024-01-30T02:16:36;29.58;;;10.30;;
56720;SDS011;53183;47.412;18.884;2024-01-30T02:19:04;26.30;;;10.25;;
56720;SDS011;53183;47.412;18.884;2024-01-30T02:21:32;20.00;;;10.55;;
56720;SDS011;53183;47.412;18.884;2024-01-30T02:23:59;23.77;;;10.32;;
56720;SDS011;53183;47.412;18.884;2024-01-30T02:26:26;24.45;;;9.93;;
56720;SDS011;53183;47.412;18.884;2024-01-30T02:28:53;23.25;;;9.90;;
56720;SDS011;53183;47.412;18.884;2024-01-30T02:31:20;20.98;;;9.57;;
56720;SDS011;53183;47.412;18.884;2024-01-30T02:33:50;20.58;;;9.02;;
56720;SDS011;53183;47.412;18.884;2024-01-30T02:36:18;22.77;;;9.73;;
56720;SDS011;53183;47.412;18.884;2024-01-30T02:38:46;31.25;;;11.10;;
56720;SDS011;53183;47.412;18.884;2024-01-30T02:41:14;24.63;;;9.57;;
56720;SDS011;53183;47.412;18.884;2024-01-30T02:43:42;21.23;;;9.18;;
56720;SDS011;53183;47.412;18.884;2024-01-30T02:46:10;29.40;;;11.20;;
56720;SDS011;53183;47.412;18.884;2024-01-30T02:48:39;38.42;;;12.88;;
56720;SDS011;53183;47.412;18.884;2024-01-30T02:51:06;22.92;;;9.98;;
56720;SDS011;53183;47.412;18.884;2024-01-30T02:53:33;21.15;;;10.45;;
56720;SDS011;53183;47.412;18.884;2024-01-30T02:56:01;24.48;;;11.57;;
56720;SDS011;53183;47.412;18.884;2024-01-30T02:58:29;26.90;;;10.73;;
56720;SDS011;53183;47.412;18.884;2024-01-30T03:00:56;20.60;;;9.55;;
56720;SDS011;53183;47.412;18.884;2024-01-30T03:03:24;23.40;;;9.35;;
56720;SDS011;53183;47.412;18.884;2024-01-30T03:05:51;23.12;;;9.88;;
56720;SDS011;53183;47.412;18.884;2024-01-30T03:08:20;24.60;;;10.30;;
56720;SDS011;53183;47.412;18.884;2024-01-30T03:10:48;22.60;;;9.27;;
56720;SDS011;53183;47.412;18.884;2024-01-30T03:13:16;21.95;;;10.13;;
56720;SDS011;53183;47.412;18.884;2024-01-30T03:15:44;25.65;;;9.90;;
56720;SDS011;53183;47.412;18.884;2024-01-30T03:18:11;23.42;;;10.07;;
56720;SDS011;53183;47.412;18.884;2024-01-30T03:20:40;17.70;;;9.02;;
56720;SDS011;53183;47.412;18.884;2024-01-30T03:23:07;21.15;;;8.30;;
56720;SDS011;53183;47.412;18.884;2024-01-30T03:25:34;20.23;;;8.88;;
56720;SDS011;53183;47.412;18.884;2024-01-30T03:28:01;25.58;;;9.73;;
56720;SDS011;53183;47.412;18.884;2024-01-30T03:30:30;21.15;;;8.65;;
56720;SDS011;53183;47.412;18.884;2024-01-30T03:32:57;25.25;;;8.80;;
56720;SDS011;53183;47.412;18.884;2024-01-30T03:35:24;25.37;;;9.77;;
56720;SDS011;53183;47.412;18.884;2024-01-30T03:37:52;23.87;;;10.15;;
56720;SDS011;53183;47.412;18.884;2024-01-30T03:40:19;15.95;;;8.73;;
56720;SDS011;53183;47.412;18.884;2024-01-30T03:42:46;22.77;;;9.65;;
56720;SDS011;53183;47.412;18.884;2024-01-30T03:45:13;19.98;;;8.65;;
56720;SDS011;53183;47.412;18.884;2024-01-30T03:47:43;22.17;;;9.80;;
56720;SDS011;53183;47.412;18.884;2024-01-30T03:50:10;22.30;;;9.57;;
56720;SDS011;53183;47.412;18.884;2024-01-30T03:52:37;20.52;;;8.90;;
56720;SDS011;53183;47.412;18.884;2024-01-30T03:55:05;25.75;;;9.15;;
56720;SDS011;53183;47.412;18.884;2024-01-30T03:57:32;20.25;;;9.80;;
56720;SDS011;53183;47.412;18.884;2024-01-30T03:59:59;23.02;;;10.32;;
56720;SDS011;53183;47.412;18.884;2024-01-30T04:02:38;22.83;;;9.25;;
56720;SDS011;53183;47.412;18.884;2024-01-30T04:05:07;21.65;;;9.45;;
56720;SDS011;53183;47.412;18.884;2024-01-30T04:07:34;23.38;;;9.55;;
56720;SDS011;53183;47.412;18.884;2024-01-30T04:10:02;24.08;;;10.68;;
56720;SDS011;53183;47.412;18.884;2024-01-30T04:12:32;16.65;;;8.50;;
56720;SDS011;53183;47.412;18.884;2024-01-30T04:14:59;27.13;;;9.40;;
56720;SDS011;53183;47.412;18.884;2024-01-30T04:17:26;31.95;;;11.20;;
56720;SDS011;53183;47.412;18.884;2024-01-30T04:19:56;24.50;;;10.13;;
56720;SDS011;53183;47.412;18.884;2024-01-30T04:22:23;23.50;;;10.10;;
56720;SDS011;53183;47.412;18.884;2024-01-30T04:24:51;28.33;;;9.35;;
56720;SDS011;53183;47.412;18.884;2024-01-30T04:27:18;29.12;;;9.75;;
56720;SDS011;53183;47.412;18.884;2024-01-30T04:29:45;24.77;;;10.00;;
56720;SDS011;53183;47.412;18.884;2024-01-30T04:32:13;26.62;;;10.45;;
56720;SDS011;53183;47.412;18.884;2024-01-30T04:34:41;22.33;;;10.02;;
56720;SDS011;53183;47.412;18.884;2024-01-30T04:37:10;26.40;;;10.98;;
56720;SDS011;53183;47.412;18.884;2024-01-30T04:39:37;33.55;;;10.05;;
56720;SDS011;53183;47.412;18.884;2024-01-30T04:42:04;31.85;;;10.40;;
56720;SDS011;53183;47.412;18.884;2024-01-30T04:44:35;24.65;;;9.75;;
56720;SDS011;53183;47.412;18.884;2024-01-30T04:47:03;21.73;;;10.50;;
56720;SDS011;53183;47.412;18.884;2024-01-30T04:49:32;27.67;;;10.05;;
56720;SDS011;53183;47.412;18.884;2024-01-30T04:51:59;30.33;;;11.95;;
56720;SDS011;53183;47.412;18.884;2024-01-30T04:54:30;24.52;;;10.68;;
56720;SDS011;53183;47.412;18.884;2024-01-30T04:56:59;21.35;;;10.95;;
56720;SDS011;53183;47.412;18.884;2024-01-30T04:59:27;33.83;;;12.65;;
56720;SDS011;53183;47.412;18.884;2024-01-30T05:01:55;30.60;;;10.23;;
56720;SDS011;53183;47.412;18.884;2024-01-30T05:04:23;23.15;;;10.52;;
56720;SDS011;53183;47.412;18.884;2024-01-30T05:06:51;28.98;;;10.77;;
56720;SDS011;53183;47.412;18.884;2024-01-30T05:09:18;27.17;;;10.77;;
56720;SDS011;53183;47.412;18.884;2024-01-30T05:11:46;24.30;;;10.07;;
56720;SDS011;53183;47.412;18.884;2024-01-30T05:14:13;23.73;;;10.55;;
56720;SDS011;53183;47.412;18.884;2024-01-30T05:16:41;24.67;;;10.57;;
56720;SDS011;53183;47.412;18.884;2024-01-30T05:19:14;8.35;;;3.50;;
56720;SDS011;53183;47.412;18.884;2024-01-30T05:21:41;17.45;;;5.65;;
56720;SDS011;53183;47.412;18.884;2024-01-30T05:24:08;24.65;;;12.20;;
56720;SDS011;53183;47.412;18.884;2024-01-30T05:26:37;24.60;;;10.88;;
56720;SDS011;53183;47.412;18.884;2024-01-30T05:29:06;23.27;;;11.30;;
56720;SDS011;53183;47.412;18.884;2024-01-30T05:31:34;21.35;;;10.65;;
56720;SDS011;53183;47.412;18.884;2024-01-30T05:34:01;25.12;;;11.55;;
56720;SDS011;53183;47.412;18.884;2024-01-30T05:36:29;23.65;;;11.25;;
56720;SDS011;53183;47.412;18.884;2024-01-30T05:38:57;22.95;;;11.02;;
56720;SDS011;53183;47.412;18.884;2024-01-30T05:41:24;28.55;;;12.07;;
56720;SDS011;53183;47.412;18.884;2024-01-30T05:43:53;24.52;;;12.02;;
56720;SDS011;53183;47.412;18.884;2024-01-30T05:46:22;22.10;;;11.20;;
56720;SDS011;53183;47.412;18.884;2024-01-30T05:48:51;18.60;;;10.38;;
56720;SDS011;53183;47.412;18.884;2024-01-30T05:51:19;26.05;;;12.02;;
56720;SDS011;53183;47.412;18.884;2024-01-30T05:53:46;24.58;;;12.37;;
56720;SDS011;53183;47.412;18.884;2024-01-30T05:56:14;21.75;;;11.73;;
56720;SDS011;53183;47.412;18.884;2024-01-30T05:58:42;26.33;;;11.70;;
56720;SDS011;53183;47.412;18.884;2024-01-30T06:01:10;25.67;;;11.07;;
56720;SDS011;53183;47.412;18.884;2024-01-30T06:03:37;25.15;;;11.95;;
56720;SDS011;53183;47.412;18.884;2024-01-30T06:06:06;23.67;;;11.63;;
56720;SDS011;53183;47.412;18.884;2024-01-30T06:08:36;27.20;;;11.52;;
56720;SDS011;53183;47.412;18.884;2024-01-30T06:11:03;38.42;;;13.57;;
56720;SDS011;53183;47.412;18.884;2024-01-30T06:13:35;32.13;;;14.65;;
56720;SDS011;53183;47.412;18.884;2024-01-30T06:16:01;31.17;;;12.55;;
56720;SDS011;53183;47.412;18.884;2024-01-30T06:18:32;28.48;;;12.80;;
56720;SDS011;53183;47.412;18.884;2024-01-30T06:21:00;31.52;;;12.90;;
56720;SDS011;53183;47.412;18.884;2024-01-30T06:23:27;31.90;;;13.00;;
56720;SDS011;53183;47.412;18.884;2024-01-30T06:25:54;24.65;;;11.52;;
56720;SDS011;53183;47.412;18.884;2024-01-30T06:28:21;26.70;;;11.65;;
56720;SDS011;53183;47.412;18.884;2024-01-30T06:30:49;22.15;;;10.25;;
56720;SDS011;53183;47.412;18.884;2024-01-30T06:33:17;21.25;;;11.25;;
56720;SDS011;53183;47.412;18.884;2024-01-30T06:35:45;21.05;;;10.52;;
56720;SDS011;53183;47.412;18.884;2024-01-30T06:38:13;33.05;;;13.18;;
56720;SDS011;53183;47.412;18.884;2024-01-30T06:40:44;33.85;;;15.65;;
56720;SDS011;53183;47.412;18.884;2024-01-30T06:43:13;22.92;;;11.05;;
56720;SDS011;53183;47.412;18.884;2024-01-30T06:45:40;22.30;;;10.15;;
56720;SDS011;53183;47.412;18.884;2024-01-30T06:48:11;31.12;;;11.27;;
56720;SDS011;53183;47.412;18.884;2024-01-30T06:50:40;28.17;;;12.05;;
56720;SDS011;53183;47.412;18.884;2024-01-30T06:53:07;22.60;;;12.25;;
56720;SDS011;53183;47.412;18.884;2024-01-30T06:55:46;26.45;;;11.45;;
56720;SDS011;53183;47.412;18.884;2024-01-30T06:58:14;23.08;;;10.77;;
56720;SDS011;53183;47.412;18.884;2024-01-30T07:00:41;24.87;;;12.20;;
56720;SDS011;53183;47.412;18.884;2024-01-30T07:03:09;25.25;;;11.35;;
56720;SDS011;53183;47.412;18.884;2024-01-30T07:05:38;26.10;;;11.73;;
56720;SDS011;53183;47.412;18.884;2024-01-30T07:08:06;26.30;;;12.48;;
56720;SDS011;53183;47.412;18.884;2024-01-30T07:10:35;22.23;;;10.40;;
56720;SDS011;53183;47.412;18.884;2024-01-30T07:13:03;29.70;;;12.57;;
56720;SDS011;53183;47.412;18.884;2024-01-30T07:15:32;24.85;;;11.68;;
56720;SDS011;53183;47.412;18.884;2024-01-30T07:18:00;25.15;;;10.88;;
56720;SDS011;53183;47.412;18.884;2024-01-30T07:20:28;22.87;;;11.55;;
56720;SDS011;53183;47.412;18.884;2024-01-30T07:22:58;21.02;;;9.77;;
56720;SDS011;53183;47.412;18.884;2024-01-30T07:25:25;25.98;;;11.90;;
56720;SDS011;53183;47.412;18.884;2024-01-30T07:27:58;22.05;;;10.00;;
56720;SDS011;53183;47.412;18.884;2024-01-30T07:30:26;20.25;;;9.77;;
56720;SDS011;53183;47.412;18.884;2024-01-30T07:32:53;18.42;;;9.13;;
56720;SDS011;53183;47.412;18.884;2024-01-30T07:35:23;22.95;;;11.23;;
56720;SDS011;53183;47.412;18.884;2024-01-30T07:37:50;19.85;;;9.48;;
56720;SDS011;53183;47.412;18.884;2024-01-30T07:40:18;24.87;;;10.27;;
56720;SDS011;53183;47.412;18.884;2024-01-30T07:42:45;22.02;;;10.95;;
56720;SDS011;53183;47.412;18.884;2024-01-30T07:45:13;27.58;;;11.12;;
56720;SDS011;53183;47.412;18.884;2024-01-30T07:47:40;21.92;;;9.95;;
56720;SDS011;53183;47.412;18.884;2024-01-30T07:50:07;27.58;;;11.23;;
56720;SDS011;53183;47.412;18.884;2024-01-30T07:52:43;25.08;;;10.82;;
56720;SDS011;53183;47.412;18.884;2024-01-30T07:58:24;20.83;;;10.45;;
56720;SDS011;53183;47.412;18.884;2024-01-30T08:00:54;22.83;;;10.48;;
56720;SDS011;53183;47.412;18.884;2024-01-30T08:03:24;17.45;;;9.77;;
56720;SDS011;53183;47.412;18.884;2024-01-30T08:05:51;22.33;;;11.07;;
56720;SDS011;53183;47.412;18.884;2024-01-30T08:08:18;25.25;;;10.90;;
56720;SDS011;53183;47.412;18.884;2024-01-30T08:10:46;23.58;;;10.93;;
56720;SDS011;53183;47.412;18.884;2024-01-30T08:13:14;22.58;;;12.00;;
56720;SDS011;53183;47.412;18.884;2024-01-30T08:15:41;28.17;;;12.40;;
56720;SDS011;53183;47.412;18.884;2024-01-30T08:18:09;24.87;;;11.57;;
56720;SDS011;53183;47.412;18.884;2024-01-30T08:20:37;27.23;;;12.85;;
56720;SDS011;53183;47.412;18.884;2024-01-30T08:23:07;25.23;;;11.52;;
56720;SDS011;53183;47.412;18.884;2024-01-30T08:25:45;21.73;;;11.45;;
56720;SDS011;53183;47.412;18.884;2024-01-30T08:28:13;23.90;;;10.65;;
56720;SDS011;53183;47.412;18.884;2024-01-30T08:30:41;23.48;;;11.00;;
56720;SDS011;53183;47.412;18.884;2024-01-30T08:33:08;26.20;;;11.88;;
56720;SDS011;53183;47.412;18.884;2024-01-30T08:35:36;29.10;;;13.60;;
56720;SDS011;53183;47.412;18.884;2024-01-30T08:38:03;32.72;;;13.40;;
56720;SDS011;53183;47.412;18.884;2024-01-30T08:40:30;31.08;;;12.13;;
56720;SDS011;53183;47.412;18.884;2024-01-30T08:42:57;25.88;;;11.88;;
56720;SDS011;53183;47.412;18.884;2024-01-30T08:45:25;26.98;;;12.98;;
56720;SDS011;53183;47.412;18.884;2024-01-30T08:47:52;34.20;;;12.93;;
56720;SDS011;53183;47.412;18.884;2024-01-30T08:50:20;29.87;;;12.48;;
56720;SDS011;53183;47.412;18.884;2024-01-30T08:52:47;31.52;;;13.45;;
56720;SDS011;53183;47.412;18.884;2024-01-30T08:55:16;23.60;;;11.60;;
56720;SDS011;53183;47.412;18.884;2024-01-30T08:57:43;30.23;;;11.63;;
56720;SDS011;53183;47.412;18.884;2024-01-30T09:00:13;23.70;;;11.60;;
56720;SDS011;53183;47.412;18.884;2024-01-30T09:02:41;25.50;;;12.13;;
56720;SDS011;53183;47.412;18.884;2024-01-30T09:05:10;28.40;;;12.40;;
56720;SDS011;53183;47.412;18.884;2024-01-30T09:07:37;24.87;;;12.07;;
56720;SDS011;53183;47.412;18.884;2024-01-30T09:10:06;24.20;;;11.48;;
56720;SDS011;53183;47.412;18.884;2024-01-30T09:12:38;20.92;;;10.85;;
56720;SDS011;53183;47.412;18.884;2024-01-30T09:15:05;26.55;;;13.40;;
56720;SDS011;53183;47.412;18.884;2024-01-30T09:17:33;31.87;;;11.88;;
56720;SDS011;53183;47.412;18.884;2024-01-30T09:20:00;27.73;;;12.32;;
56720;SDS011;53183;47.412;18.884;2024-01-30T09:22:28;23.33;;;11.95;;
56720;SDS011;53183;47.412;18.884;2024-01-30T09:24:55;33.67;;;12.95;;
56720;SDS011;53183;47.412;18.884;2024-01-30T09:27:26;25.27;;;11.95;;
56720;SDS011;53183;47.412;18.884;2024-01-30T09:29:54;27.00;;;12.55;;
56720;SDS011;53183;47.412;18.884;2024-01-30T09:32:23;21.20;;;11.15;;
56720;SDS011;53183;47.412;18.884;2024-01-30T09:34:50;26.70;;;12.10;;
56720;SDS011;53183;47.412;18.884;2024-01-30T09:37:18;24.50;;;12.00;;
56720;SDS011;53183;47.412;18.884;2024-01-30T09:39:48;22.92;;;11.73;;
56720;SDS011;53183;47.412;18.884;2024-01-30T09:44:55;26.48;;;11.95;;
56720;SDS011;53183;47.412;18.884;2024-01-30T09:47:23;26.08;;;11.88;;
56720;SDS011;53183;47.412;18.884;2024-01-30T09:49:54;23.70;;;11.88;;
56720;SDS011;53183;47.412;18.884;2024-01-30T09:52:25;26.70;;;13.23;;
56720;SDS011;53183;47.412;18.884;2024-01-30T09:54:52;26.30;;;13.32;;
56720;SDS011;53183;47.412;18.884;2024-01-30T09:57:21;36.80;;;14.07;;
56720;SDS011;53183;47.412;18.884;2024-01-30T09:59:49;23.87;;;11.55;;
56720;SDS011;53183;47.412;18.884;2024-01-30T10:02:18;29.83;;;13.20;;
56720;SDS011;53183;47.412;18.884;2024-01-30T10:04:47;29.23;;;13.60;;
56720;SDS011;53183;47.412;18.884;2024-01-30T10:07:16;31.33;;;14.30;;
56720;SDS011;53183;47.412;18.884;2024-01-30T10:09:46;17.60;;;9.55;;
56720;SDS011;53183;47.412;18.884;2024-01-30T10:12:15;21.17;;;11.38;;
56720;SDS011;53183;47.412;18.884;2024-01-30T10:14:44;25.70;;;12.30;;
56720;SDS011;53183;47.412;18.884;2024-01-30T10:17:12;24.60;;;12.00;;
56720;SDS011;53183;47.412;18.884;2024-01-30T10:19:56;23.17;;;13.57;;
56720;SDS011;53183;47.412;18.884;2024-01-30T10:22:23;26.55;;;14.85;;
56720;SDS011;53183;47.412;18.884;2024-01-30T10:24:50;27.67;;;14.87;;
56720;SDS011;53183;47.412;18.884;2024-01-30T10:27:23;32.00;;;15.55;;
56720;SDS011;53183;47.412;18.884;2024-01-30T10:29:53;39.83;;;18.55;;
56720;SDS011;53183;47.412;18.884;2024-01-30T10:32:20;33.65;;;17.12;;
56720;SDS011;53183;47.412;18.884;2024-01-30T10:34:48;31.77;;;16.10;;
56720;SDS011;53183;47.412;18.884;2024-01-30T10:37:15;28.30;;;15.50;;
56720;SDS011;53183;47.412;18.884;2024-01-30T10:39:44;32.03;;;14.82;;
56720;SDS011;53183;47.412;18.884;2024-01-30T10:42:17;33.90;;;15.45;;
56720;SDS011;53183;47.412;18.884;2024-01-30T10:45:00;29.55;;;14.65;;
56720;SDS011;53183;47.412;18.884;2024-01-30T10:47:36;27.30;;;13.23;;
56720;SDS011;53183;47.412;18.884;2024-01-30T10:50:05;27.87;;;13.77;;
56720;SDS011;53183;47.412;18.884;2024-01-30T10:52:33;28.55;;;14.13;;
56720;SDS011;53183;47.412;18.884;2024-01-30T10:55:02;36.17;;;16.98;;
56720;SDS011;53183;47.412;18.884;2024-01-30T10:57:34;31.20;;;16.87;;
56720;SDS011;53183;47.412;18.884;2024-01-30T11:00:06;39.60;;;18.95;;
56720;SDS011;53183;47.412;18.884;2024-01-30T11:02:41;35.17;;;14.43;;
56720;SDS011;53183;47.412;18.884;2024-01-30T11:05:10;39.00;;;17.33;;
56720;SDS011;53183;47.412;18.884;2024-01-30T11:07:39;29.58;;;15.60;;
56720;SDS011;53183;47.412;18.884;2024-01-30T11:10:09;25.80;;;14.40;;
56720;SDS011;53183;47.412;18.884;2024-01-30T11:12:42;30.92;;;15.02;;
56720;SDS011;53183;47.412;18.884;2024-01-30T11:15:15;28.73;;;15.60;;
56720;SDS011;53183;47.412;18.884;2024-01-30T11:20:19;31.87;;;14.40;;
56720;SDS011;53183;47.412;18.884;2024-01-30T11:22:56;26.00;;;11.90;;
56720;SDS011;53183;47.412;18.884;2024-01-30T11:25:24;22.60;;;12.23;;
56720;SDS011;53183;47.412;18.884;2024-01-30T11:27:54;24.85;;;12.35;;
56720;SDS011;53183;47.412;18.884;2024-01-30T11:35:30;24.43;;;12.67;;
56720;SDS011;53183;47.412;18.884;2024-01-30T11:38:00;18.75;;;11.02;;
56720;SDS011;53183;47.412;18.884;2024-01-30T11:40:29;24.37;;;11.60;;
56720;SDS011;53183;47.412;18.884;2024-01-30T11:42:57;20.37;;;11.45;;
56720;SDS011;53183;47.412;18.884;2024-01-30T11:45:29;27.27;;;11.90;;
56720;SDS011;53183;47.412;18.884;2024-01-30T11:47:57;25.80;;;12.02;;
56720;SDS011;53183;47.412;18.884;2024-01-30T11:50:32;27.10;;;13.35;;
56720;SDS011;53183;47.412;18.884;2024-01-30T11:53:02;28.75;;;13.00;;
56720;SDS011;53183;47.412;18.884;2024-01-30T11:55:30;25.92;;;11.35;;
56720;SDS011;53183;47.412;18.884;2024-01-30T11:58:02;21.73;;;11.27;;
56720;SDS011;53183;47.412;18.884;2024-01-30T12:00:33;23.45;;;12.32;;
56720;SDS011;53183;47.412;18.884;2024-01-30T12:03:02;27.75;;;12.80;;
56720;SDS011;53183;47.412;18.884;2024-01-30T12:05:31;24.37;;;12.45;;
56720;SDS011;53183;47.412;18.884;2024-01-30T12:07:59;22.85;;;11.38;;
56720;SDS011;53183;47.412;18.884;2024-01-30T12:10:28;26.60;;;14.40;;
56720;SDS011;53183;47.412;18.884;2024-01-30T12:12:56;31.87;;;14.25;;
56720;SDS011;53183;47.412;18.884;2024-01-30T12:15:24;25.83;;;13.62;;
56720;SDS011;53183;47.412;18.884;2024-01-30T12:18:03;28.02;;;13.32;;
56720;SDS011;53183;47.412;18.884;2024-01-30T12:20:35;27.05;;;12.32;;
56720;SDS011;53183;47.412;18.884;2024-01-30T12:23:05;20.98;;;11.40;;
56720;SDS011;53183;47.412;18.884;2024-01-30T12:25:34;25.62;;;12.15;;
56720;SDS011;53183;47.412;18.884;2024-01-30T12:28:01;21.58;;;12.27;;
56720;SDS011;53183;47.412;18.884;2024-01-30T12:30:32;22.83;;;10.57;;
56720;SDS011;53183;47.412;18.884;2024-01-30T12:33:05;22.48;;;11.52;;
56720;SDS011;53183;47.412;18.884;2024-01-30T12:35:38;22.37;;;11.55;;
56720;SDS011;53183;47.412;18.884;2024-01-30T12:38:18;18.80;;;9.75;;
56720;SDS011;53183;47.412;18.884;2024-01-30T12:40:47;24.95;;;11.32;;
56720;SDS011;53183;47.412;18.884;2024-01-30T12:43:18;23.92;;;10.95;;
56720;SDS011;53183;47.412;18.884;2024-01-30T12:45:59;22.95;;;12.57;;
56720;SDS011;53183;47.412;18.884;2024-01-30T12:48:30;21.00;;;10.70;;
56720;SDS011;53183;47.412;18.884;2024-01-30T12:50:57;18.15;;;8.45;;
56720;SDS011;53183;47.412;18.884;2024-01-30T12:53:25;21.60;;;9.90;;
56720;SDS011;53183;47.412;18.884;2024-01-30T12:55:53;20.05;;;9.38;;
56720;SDS011;53183;47.412;18.884;2024-01-30T12:58:21;21.35;;;10.35;;
56720;SDS011;53183;47.412;18.884;2024-01-30T13:00:50;21.30;;;11.32;;
56720;SDS011;53183;47.412;18.884;2024-01-30T13:03:17;17.35;;;9.15;;
56720;SDS011;53183;47.412;18.884;2024-01-30T13:05:47;19.73;;;10.30;;
56720;SDS011;53183;47.412;18.884;2024-01-30T13:08:14;18.10;;;7.90;;
56720;SDS011;53183;47.412;18.884;2024-01-30T13:10:43;14.50;;;7.82;;
56720;SDS011;53183;47.412;18.884;2024-01-30T13:13:15;16.05;;;7.85;;
56720;SDS011;53183;47.412;18.884;2024-01-30T13:15:47;18.20;;;7.82;;
56720;SDS011;53183;47.412;18.884;2024-01-30T13:18:18;21.90;;;9.30;;
56720;SDS011;53183;47.412;18.884;2024-01-30T13:20:55;14.35;;;7.12;;
56720;SDS011;53183;47.412;18.884;2024-01-30T13:23:27;19.83;;;6.65;;
56720;SDS011;53183;47.412;18.884;2024-01-30T13:25:55;16.48;;;7.68;;
56720;SDS011;53183;47.412;18.884;2024-01-30T13:28:30;13.95;;;8.07;;
56720;SDS011;53183;47.412;18.884;2024-01-30T13:30:58;19.75;;;8.00;;
56720;SDS011;53183;47.412;18.884;2024-01-30T13:33:26;22.60;;;8.30;;
56720;SDS011;53183;47.412;18.884;2024-01-30T13:35:55;14.82;;;7.60;;
56720;SDS011;53183;47.412;18.884;2024-01-30T13:38:22;15.43;;;8.70;;
56720;SDS011;53183;47.412;18.884;2024-01-30T13:40:50;19.17;;;8.52;;
56720;SDS011;53183;47.412;18.884;2024-01-30T13:43:18;20.12;;;7.97;;
56720;SDS011;53183;47.412;18.884;2024-01-30T13:45:46;23.05;;;8.38;;
56720;SDS011;53183;47.412;18.884;2024-01-30T13:48:14;17.98;;;9.15;;
56720;SDS011;53183;47.412;18.884;2024-01-30T13:50:41;17.48;;;8.40;;
56720;SDS011;53183;47.412;18.884;2024-01-30T13:53:09;21.42;;;8.40;;
56720;SDS011;53183;47.412;18.884;2024-01-30T13:55:36;18.60;;;8.35;;
56720;SDS011;53183;47.412;18.884;2024-01-30T14:01:39;24.63;;;9.90;;
56720;SDS011;53183;47.412;18.884;2024-01-30T14:04:08;19.05;;;9.35;;
56720;SDS011;53183;47.412;18.884;2024-01-30T14:06:38;16.30;;;7.43;;
56720;SDS011;53183;47.412;18.884;2024-01-30T14:09:19;16.40;;;8.25;;
56720;SDS011;53183;47.412;18.884;2024-01-30T14:11:48;16.48;;;8.90;;
56720;SDS011;53183;47.412;18.884;2024-01-30T14:14:15;15.75;;;8.68;;
56720;SDS011;53183;47.412;18.884;2024-01-30T14:16:43;17.60;;;9.57;;
56720;SDS011;53183;47.412;18.884;2024-01-30T14:19:11;20.27;;;8.40;;
56720;SDS011;53183;47.412;18.884;2024-01-30T14:21:38;21.85;;;9.07;;
56720;SDS011;53183;47.412;18.884;2024-01-30T14:24:08;12.32;;;7.62;;
56720;SDS011;53183;47.412;18.884;2024-01-30T14:26:36;16.35;;;7.90;;
56720;SDS011;53183;47.412;18.884;2024-01-30T14:29:04;16.62;;;8.30;;
56720;SDS011;53183;47.412;18.884;2024-01-30T14:31:32;19.10;;;9.10;;
56720;SDS011;53183;47.412;18.884;2024-01-30T14:34:01;16.90;;;8.25;;
56720;SDS011;53183;47.412;18.884;2024-01-30T14:36:29;13.98;;;7.65;;